sensor_id;sensor_type;location;lat;lon;timestamp;P1;durP1;ratioP1;P2;durP2;ratioP2
11943;SDS011;6031;50.220;10.122;2023-05-13T00:01:10;4.63;;;4.23;;
11943;SDS011;6031;50.220;10.122;2023-05-13T00:03:36;7.37;;;5.10;;
11943;SDS011;6031;50.220;10.122;2023-05-13T00:06:01;5.00;;;4.50;;
11943;SDS011;6031;50.220;10.122;2023-05-13T00:08:27;5.00;;;4.60;;
11943;SDS011;6031;50.220;10.122;2023-05-13T00:10:52;4.97;;;4.47;;
11943;SDS011;6031;50.220;10.122;2023-05-13T00:13:18;4.50;;;3.97;;
11943;SDS011;6031;50.220;10.122;2023-05-13T00:15:43;6.03;;;4.50;;
11943;SDS011;6031;50.220;10.122;2023-05-13T00:18:09;4.80;;;4.40;;
11943;SDS011;6031;50.220;10.122;2023-05-13T00:20:35;8.13;;;4.60;;
11943;SDS011;6031;50.220;10.122;2023-05-13T00:23:00;4.87;;;4.47;;
11943;SDS011;6031;50.220;10.122;2023-05-13T00:25:27;3.70;;;3.40;;
11943;SDS011;6031;50.220;10.122;2023-05-13T00:27:52;4.00;;;3.60;;
11943;SDS011;6031;50.220;10.122;2023-05-13T00:30:18;4.30;;;4.00;;
11943;SDS011;6031;50.220;10.122;2023-05-13T00:32:44;6.77;;;4.60;;
11943;SDS011;6031;50.220;10.122;2023-05-13T00:35:10;5.30;;;4.47;;
11943;SDS011;6031;50.220;10.122;2023-05-13T00:37:36;4.47;;;4.00;;
11943;SDS011;6031;50.220;10.122;2023-05-13T00:40:01;3.63;;;3.27;;
11943;SDS011;6031;50.220;10.122;2023-05-13T00:42:27;3.63;;;3.30;;
11943;SDS011;6031;50.220;10.122;2023-05-13T00:44:53;5.37;;;4.63;;
11943;SDS011;6031;50.220;10.122;2023-05-13T00:47:18;5.20;;;4.23;;
11943;SDS011;6031;50.220;10.122;2023-05-13T00:49:44;3.23;;;2.93;;
11943;SDS011;6031;50.220;10.122;2023-05-13T00:52:10;3.20;;;3.00;;
11943;SDS011;6031;50.220;10.122;2023-05-13T00:54:36;5.23;;;4.37;;
11943;SDS011;6031;50.220;10.122;2023-05-13T00:57:01;6.07;;;5.10;;
11943;SDS011;6031;50.220;10.122;2023-05-13T00:59:27;5.33;;;4.83;;
11943;SDS011;6031;50.220;10.122;2023-05-13T01:11:04;4.87;;;4.40;;
11943;SDS011;6031;50.220;10.122;2023-05-13T01:13:40;5.23;;;4.17;;
11943;SDS011;6031;50.220;10.122;2023-05-13T01:16:19;5.10;;;4.70;;
11943;SDS011;6031;50.220;10.122;2023-05-13T01:18:53;4.90;;;3.47;;
11943;SDS011;6031;50.220;10.122;2023-05-13T01:21:25;3.50;;;3.20;;
11943;SDS011;6031;50.220;10.122;2023-05-13T01:23:51;7.50;;;5.37;;
11943;SDS011;6031;50.220;10.122;2023-05-13T01:26:17;5.70;;;5.20;;
11943;SDS011;6031;50.220;10.122;2023-05-13T01:28:43;4.90;;;4.50;;
11943;SDS011;6031;50.220;10.122;2023-05-13T01:31:09;5.33;;;4.83;;
11943;SDS011;6031;50.220;10.122;2023-05-13T01:33:36;7.70;;;5.47;;
11943;SDS011;6031;50.220;10.122;2023-05-13T01:36:02;5.27;;;4.77;;
11943;SDS011;6031;50.220;10.122;2023-05-13T01:38:27;5.60;;;5.10;;
11943;SDS011;6031;50.220;10.122;2023-05-13T01:40:55;5.07;;;4.57;;
11943;SDS011;6031;50.220;10.122;2023-05-13T01:43:22;5.20;;;4.77;;
11943;SDS011;6031;50.220;10.122;2023-05-13T01:45:48;5.00;;;4.60;;
11943;SDS011;6031;50.220;10.122;2023-05-13T01:48:14;5.67;;;4.80;;
11943;SDS011;6031;50.220;10.122;2023-05-13T01:50:39;6.23;;;5.07;;
11943;SDS011;6031;50.220;10.122;2023-05-13T01:53:05;6.63;;;4.90;;
11943;SDS011;6031;50.220;10.122;2023-05-13T01:55:30;6.07;;;5.40;;
11943;SDS011;6031;50.220;10.122;2023-05-13T01:57:56;5.00;;;4.50;;
11943;SDS011;6031;50.220;10.122;2023-05-13T02:00:21;7.10;;;4.70;;
11943;SDS011;6031;50.220;10.122;2023-05-13T02:02:47;7.10;;;5.40;;
11943;SDS011;6031;50.220;10.122;2023-05-13T02:05:12;4.83;;;4.43;;
11943;SDS011;6031;50.220;10.122;2023-05-13T02:07:38;5.20;;;4.80;;
11943;SDS011;6031;50.220;10.122;2023-05-13T02:10:03;5.57;;;5.00;;
11943;SDS011;6031;50.220;10.122;2023-05-13T02:12:30;5.43;;;4.93;;
11943;SDS011;6031;50.220;10.122;2023-05-13T02:14:55;5.50;;;5.03;;
11943;SDS011;6031;50.220;10.122;2023-05-13T02:17:21;5.47;;;4.90;;
11943;SDS011;6031;50.220;10.122;2023-05-13T02:19:46;5.17;;;4.67;;
11943;SDS011;6031;50.220;10.122;2023-05-13T02:22:12;4.90;;;4.50;;
11943;SDS011;6031;50.220;10.122;2023-05-13T02:24:38;5.37;;;4.67;;
11943;SDS011;6031;50.220;10.122;2023-05-13T02:27:06;8.30;;;4.53;;
11943;SDS011;6031;50.220;10.122;2023-05-13T02:29:32;5.37;;;4.87;;
11943;SDS011;6031;50.220;10.122;2023-05-13T02:31:58;4.83;;;4.27;;
11943;SDS011;6031;50.220;10.122;2023-05-13T02:34:23;4.53;;;4.13;;
11943;SDS011;6031;50.220;10.122;2023-05-13T02:36:49;4.73;;;4.33;;
11943;SDS011;6031;50.220;10.122;2023-05-13T02:39:15;6.50;;;4.47;;
11943;SDS011;6031;50.220;10.122;2023-05-13T02:41:40;4.87;;;4.47;;
11943;SDS011;6031;50.220;10.122;2023-05-13T02:44:06;4.90;;;4.50;;
11943;SDS011;6031;50.220;10.122;2023-05-13T02:46:31;5.97;;;4.30;;
11943;SDS011;6031;50.220;10.122;2023-05-13T02:48:57;5.93;;;4.73;;
11943;SDS011;6031;50.220;10.122;2023-05-13T02:51:23;5.47;;;4.40;;
11943;SDS011;6031;50.220;10.122;2023-05-13T02:53:49;6.10;;;4.67;;
11943;SDS011;6031;50.220;10.122;2023-05-13T02:56:15;5.37;;;4.90;;
11943;SDS011;6031;50.220;10.122;2023-05-13T02:58:41;5.23;;;4.60;;
11943;SDS011;6031;50.220;10.122;2023-05-13T03:01:06;4.77;;;4.37;;
11943;SDS011;6031;50.220;10.122;2023-05-13T03:03:32;5.20;;;4.60;;
11943;SDS011;6031;50.220;10.122;2023-05-13T03:05:57;4.57;;;4.17;;
11943;SDS011;6031;50.220;10.122;2023-05-13T03:08:23;5.00;;;4.60;;
11943;SDS011;6031;50.220;10.122;2023-05-13T03:10:48;7.10;;;5.53;;
11943;SDS011;6031;50.220;10.122;2023-05-13T03:13:14;6.43;;;4.20;;
11943;SDS011;6031;50.220;10.122;2023-05-13T03:15:40;5.47;;;4.97;;
11943;SDS011;6031;50.220;10.122;2023-05-13T03:18:05;4.77;;;4.37;;
11943;SDS011;6031;50.220;10.122;2023-05-13T03:20:31;4.47;;;4.17;;
11943;SDS011;6031;50.220;10.122;2023-05-13T03:22:56;5.27;;;4.83;;
11943;SDS011;6031;50.220;10.122;2023-05-13T03:25:22;5.30;;;4.80;;
11943;SDS011;6031;50.220;10.122;2023-05-13T03:27:47;5.67;;;5.17;;
11943;SDS011;6031;50.220;10.122;2023-05-13T03:30:13;6.27;;;4.30;;
11943;SDS011;6031;50.220;10.122;2023-05-13T03:32:38;5.23;;;4.73;;
11943;SDS011;6031;50.220;10.122;2023-05-13T03:35:04;7.17;;;5.17;;
11943;SDS011;6031;50.220;10.122;2023-05-13T03:37:29;4.60;;;4.13;;
11943;SDS011;6031;50.220;10.122;2023-05-13T03:39:55;5.10;;;4.60;;
11943;SDS011;6031;50.220;10.122;2023-05-13T03:42:21;5.10;;;3.93;;
11943;SDS011;6031;50.220;10.122;2023-05-13T03:44:47;5.10;;;4.60;;
11943;SDS011;6031;50.220;10.122;2023-05-13T03:47:13;5.40;;;4.03;;
11943;SDS011;6031;50.220;10.122;2023-05-13T03:49:38;4.83;;;4.33;;
11943;SDS011;6031;50.220;10.122;2023-05-13T03:52:04;4.63;;;4.23;;
11943;SDS011;6031;50.220;10.122;2023-05-13T03:54:32;6.37;;;4.47;;
11943;SDS011;6031;50.220;10.122;2023-05-13T03:56:58;5.13;;;4.23;;
11943;SDS011;6031;50.220;10.122;2023-05-13T03:59:23;4.10;;;3.80;;
11943;SDS011;6031;50.220;10.122;2023-05-13T04:01:49;5.77;;;4.70;;
11943;SDS011;6031;50.220;10.122;2023-05-13T04:04:14;4.93;;;4.37;;
11943;SDS011;6031;50.220;10.122;2023-05-13T04:06:40;5.80;;;4.87;;
11943;SDS011;6031;50.220;10.122;2023-05-13T04:09:05;4.77;;;4.37;;
11943;SDS011;6031;50.220;10.122;2023-05-13T04:11:31;6.00;;;4.70;;
11943;SDS011;6031;50.220;10.122;2023-05-13T04:13:57;7.10;;;4.80;;
11943;SDS011;6031;50.220;10.122;2023-05-13T04:16:22;6.53;;;5.23;;
11943;SDS011;6031;50.220;10.122;2023-05-13T04:18:49;5.77;;;5.27;;
11943;SDS011;6031;50.220;10.122;2023-05-13T04:21:15;9.33;;;4.90;;
11943;SDS011;6031;50.220;10.122;2023-05-13T04:23:40;7.10;;;5.17;;
11943;SDS011;6031;50.220;10.122;2023-05-13T04:26:06;5.83;;;4.83;;
11943;SDS011;6031;50.220;10.122;2023-05-13T04:28:32;5.63;;;5.10;;
11943;SDS011;6031;50.220;10.122;2023-05-13T04:30:58;5.13;;;4.73;;
11943;SDS011;6031;50.220;10.122;2023-05-13T04:33:24;6.83;;;4.90;;
11943;SDS011;6031;50.220;10.122;2023-05-13T04:35:50;5.60;;;5.10;;
11943;SDS011;6031;50.220;10.122;2023-05-13T04:38:16;9.97;;;5.63;;
11943;SDS011;6031;50.220;10.122;2023-05-13T04:40:42;4.80;;;4.40;;
11943;SDS011;6031;50.220;10.122;2023-05-13T04:43:09;4.97;;;4.57;;
11943;SDS011;6031;50.220;10.122;2023-05-13T04:45:35;5.13;;;4.63;;
11943;SDS011;6031;50.220;10.122;2023-05-13T04:48:02;5.73;;;5.23;;
11943;SDS011;6031;50.220;10.122;2023-05-13T04:50:27;4.97;;;4.50;;
11943;SDS011;6031;50.220;10.122;2023-05-13T04:52:53;5.37;;;4.87;;
11943;SDS011;6031;50.220;10.122;2023-05-13T04:55:20;5.90;;;5.00;;
11943;SDS011;6031;50.220;10.122;2023-05-13T04:57:45;5.63;;;4.20;;
11943;SDS011;6031;50.220;10.122;2023-05-13T05:00:11;4.70;;;4.30;;
11943;SDS011;6031;50.220;10.122;2023-05-13T05:02:37;4.30;;;4.00;;
11943;SDS011;6031;50.220;10.122;2023-05-13T05:05:03;4.97;;;4.20;;
11943;SDS011;6031;50.220;10.122;2023-05-13T05:07:29;4.33;;;4.00;;
11943;SDS011;6031;50.220;10.122;2023-05-13T05:09:54;5.43;;;4.17;;
11943;SDS011;6031;50.220;10.122;2023-05-13T05:12:20;4.97;;;4.37;;
11943;SDS011;6031;50.220;10.122;2023-05-13T05:14:45;6.00;;;3.90;;
11943;SDS011;6031;50.220;10.122;2023-05-13T05:17:11;4.90;;;3.97;;
11943;SDS011;6031;50.220;10.122;2023-05-13T05:19:36;5.37;;;4.07;;
11943;SDS011;6031;50.220;10.122;2023-05-13T05:22:02;4.10;;;3.80;;
11943;SDS011;6031;50.220;10.122;2023-05-13T05:24:28;4.80;;;3.70;;
11943;SDS011;6031;50.220;10.122;2023-05-13T05:26:53;4.93;;;3.83;;
11943;SDS011;6031;50.220;10.122;2023-05-13T05:29:19;4.10;;;3.80;;
11943;SDS011;6031;50.220;10.122;2023-05-13T05:31:44;4.20;;;3.73;;
11943;SDS011;6031;50.220;10.122;2023-05-13T05:34:10;4.07;;;3.77;;
11943;SDS011;6031;50.220;10.122;2023-05-13T05:36:36;4.40;;;3.90;;
11943;SDS011;6031;50.220;10.122;2023-05-13T05:39:01;4.00;;;3.40;;
11943;SDS011;6031;50.220;10.122;2023-05-13T05:41:27;6.53;;;3.23;;
11943;SDS011;6031;50.220;10.122;2023-05-13T05:43:53;3.70;;;3.40;;
11943;SDS011;6031;50.220;10.122;2023-05-13T05:46:18;5.60;;;3.30;;
11943;SDS011;6031;50.220;10.122;2023-05-13T05:48:44;2.97;;;2.77;;
11943;SDS011;6031;50.220;10.122;2023-05-13T05:51:09;3.50;;;3.20;;
11943;SDS011;6031;50.220;10.122;2023-05-13T05:53:35;3.70;;;3.40;;
11943;SDS011;6031;50.220;10.122;2023-05-13T05:56:04;3.50;;;3.00;;
11943;SDS011;6031;50.220;10.122;2023-05-13T05:58:30;4.57;;;3.20;;
11943;SDS011;6031;50.220;10.122;2023-05-13T06:00:56;4.30;;;2.80;;
11943;SDS011;6031;50.220;10.122;2023-05-13T06:03:22;3.60;;;2.90;;
11943;SDS011;6031;50.220;10.122;2023-05-13T06:05:48;3.30;;;2.47;;
11943;SDS011;6031;50.220;10.122;2023-05-13T06:08:13;3.83;;;2.60;;
11943;SDS011;6031;50.220;10.122;2023-05-13T06:10:39;2.90;;;2.70;;
11943;SDS011;6031;50.220;10.122;2023-05-13T06:13:05;2.60;;;2.50;;
11943;SDS011;6031;50.220;10.122;2023-05-13T06:15:30;3.00;;;2.07;;
11943;SDS011;6031;50.220;10.122;2023-05-13T06:17:56;2.70;;;2.50;;
11943;SDS011;6031;50.220;10.122;2023-05-13T06:20:21;2.93;;;2.50;;
11943;SDS011;6031;50.220;10.122;2023-05-13T06:22:47;3.30;;;2.40;;
11943;SDS011;6031;50.220;10.122;2023-05-13T06:25:13;2.47;;;2.27;;
11943;SDS011;6031;50.220;10.122;2023-05-13T06:27:38;3.17;;;2.30;;
11943;SDS011;6031;50.220;10.122;2023-05-13T06:30:04;2.50;;;2.10;;
11943;SDS011;6031;50.220;10.122;2023-05-13T06:32:30;5.40;;;2.37;;
11943;SDS011;6031;50.220;10.122;2023-05-13T06:34:56;2.10;;;1.90;;
11943;SDS011;6031;50.220;10.122;2023-05-13T06:37:21;2.33;;;2.23;;
11943;SDS011;6031;50.220;10.122;2023-05-13T06:39:47;2.27;;;2.17;;
11943;SDS011;6031;50.220;10.122;2023-05-13T06:42:12;2.20;;;2.00;;
11943;SDS011;6031;50.220;10.122;2023-05-13T06:44:38;2.20;;;2.10;;
11943;SDS011;6031;50.220;10.122;2023-05-13T06:47:03;2.77;;;2.00;;
11943;SDS011;6031;50.220;10.122;2023-05-13T06:49:29;2.50;;;2.30;;
11943;SDS011;6031;50.220;10.122;2023-05-13T06:51:56;2.20;;;2.00;;
11943;SDS011;6031;50.220;10.122;2023-05-13T06:54:21;3.33;;;2.10;;
11943;SDS011;6031;50.220;10.122;2023-05-13T06:56:47;2.87;;;2.13;;
11943;SDS011;6031;50.220;10.122;2023-05-13T06:59:12;3.17;;;2.10;;
11943;SDS011;6031;50.220;10.122;2023-05-13T07:01:39;3.03;;;2.10;;
11943;SDS011;6031;50.220;10.122;2023-05-13T07:04:06;2.37;;;2.17;;
11943;SDS011;6031;50.220;10.122;2023-05-13T07:06:31;4.57;;;2.23;;
11943;SDS011;6031;50.220;10.122;2023-05-13T07:08:57;2.27;;;2.13;;
11943;SDS011;6031;50.220;10.122;2023-05-13T07:11:23;3.60;;;2.50;;
11943;SDS011;6031;50.220;10.122;2023-05-13T07:13:48;1.93;;;1.80;;
11943;SDS011;6031;50.220;10.122;2023-05-13T07:16:15;2.90;;;1.90;;
11943;SDS011;6031;50.220;10.122;2023-05-13T07:18:41;3.10;;;1.83;;
11943;SDS011;6031;50.220;10.122;2023-05-13T07:21:07;2.53;;;1.93;;
11943;SDS011;6031;50.220;10.122;2023-05-13T07:23:32;2.30;;;2.10;;
11943;SDS011;6031;50.220;10.122;2023-05-13T07:25:59;3.87;;;2.20;;
11943;SDS011;6031;50.220;10.122;2023-05-13T07:28:25;2.27;;;2.07;;
11943;SDS011;6031;50.220;10.122;2023-05-13T07:30:51;2.33;;;2.00;;
11943;SDS011;6031;50.220;10.122;2023-05-13T07:33:17;2.20;;;2.10;;
11943;SDS011;6031;50.220;10.122;2023-05-13T07:35:43;2.77;;;2.50;;
11943;SDS011;6031;50.220;10.122;2023-05-13T07:38:09;2.47;;;2.30;;
11943;SDS011;6031;50.220;10.122;2023-05-13T07:40:37;4.00;;;2.10;;
11943;SDS011;6031;50.220;10.122;2023-05-13T07:43:03;2.07;;;1.97;;
11943;SDS011;6031;50.220;10.122;2023-05-13T07:45:30;2.53;;;2.33;;
11943;SDS011;6031;50.220;10.122;2023-05-13T07:47:56;5.60;;;2.57;;
11943;SDS011;6031;50.220;10.122;2023-05-13T07:50:21;2.97;;;1.63;;
11943;SDS011;6031;50.220;10.122;2023-05-13T07:52:47;1.90;;;1.80;;
11943;SDS011;6031;50.220;10.122;2023-05-13T07:55:14;2.27;;;2.07;;
11943;SDS011;6031;50.220;10.122;2023-05-13T07:57:40;1.77;;;1.67;;
11943;SDS011;6031;50.220;10.122;2023-05-13T08:00:05;4.87;;;2.57;;
11943;SDS011;6031;50.220;10.122;2023-05-13T08:02:31;2.30;;;1.83;;
11943;SDS011;6031;50.220;10.122;2023-05-13T08:04:59;2.10;;;1.90;;
11943;SDS011;6031;50.220;10.122;2023-05-13T08:07:24;3.03;;;2.25;;
11943;SDS011;6031;50.220;10.122;2023-05-13T08:09:50;1.70;;;1.60;;
11943;SDS011;6031;50.220;10.122;2023-05-13T08:12:15;2.58;;;1.83;;
11943;SDS011;6031;50.220;10.122;2023-05-13T08:14:41;2.90;;;2.17;;
11943;SDS011;6031;50.220;10.122;2023-05-13T08:17:06;2.05;;;1.95;;
11943;SDS011;6031;50.220;10.122;2023-05-13T08:19:32;2.30;;;2.10;;
11943;SDS011;6031;50.220;10.122;2023-05-13T08:21:59;2.13;;;2.03;;
11943;SDS011;6031;50.220;10.122;2023-05-13T08:24:25;2.45;;;2.22;;
11943;SDS011;6031;50.220;10.122;2023-05-13T08:26:50;3.90;;;2.20;;
11943;SDS011;6031;50.220;10.122;2023-05-13T08:29:16;7.27;;;2.50;;
11943;SDS011;6031;50.220;10.122;2023-05-13T08:31:41;4.07;;;2.13;;
11943;SDS011;6031;50.220;10.122;2023-05-13T08:34:07;5.47;;;2.23;;
11943;SDS011;6031;50.220;10.122;2023-05-13T08:36:32;2.30;;;2.10;;
11943;SDS011;6031;50.220;10.122;2023-05-13T08:38:58;4.30;;;2.80;;
11943;SDS011;6031;50.220;10.122;2023-05-13T08:41:23;2.23;;;2.00;;
11943;SDS011;6031;50.220;10.122;2023-05-13T08:43:49;7.33;;;2.40;;
11943;SDS011;6031;50.220;10.122;2023-05-13T08:46:17;2.53;;;2.33;;
11943;SDS011;6031;50.220;10.122;2023-05-13T08:48:44;3.20;;;2.70;;
11943;SDS011;6031;50.220;10.122;2023-05-13T08:51:12;2.50;;;2.30;;
11943;SDS011;6031;50.220;10.122;2023-05-13T08:53:37;2.23;;;2.07;;
11943;SDS011;6031;50.220;10.122;2023-05-13T08:56:04;2.43;;;2.23;;
11943;SDS011;6031;50.220;10.122;2023-05-13T08:58:32;2.13;;;2.03;;
11943;SDS011;6031;50.220;10.122;2023-05-13T09:00:57;2.07;;;1.97;;
11943;SDS011;6031;50.220;10.122;2023-05-13T09:03:23;3.43;;;3.13;;
11943;SDS011;6031;50.220;10.122;2023-05-13T09:05:52;2.87;;;2.50;;
11943;SDS011;6031;50.220;10.122;2023-05-13T09:08:17;2.43;;;2.13;;
11943;SDS011;6031;50.220;10.122;2023-05-13T09:10:43;2.77;;;2.50;;
11943;SDS011;6031;50.220;10.122;2023-05-13T09:13:10;2.20;;;2.00;;
11943;SDS011;6031;50.220;10.122;2023-05-13T09:15:36;2.28;;;2.13;;
11943;SDS011;6031;50.220;10.122;2023-05-13T09:18:06;2.73;;;2.53;;
11943;SDS011;6031;50.220;10.122;2023-05-13T09:20:32;2.47;;;2.27;;
11943;SDS011;6031;50.220;10.122;2023-05-13T09:23:01;2.97;;;2.70;;
11943;SDS011;6031;50.220;10.122;2023-05-13T09:25:29;3.33;;;2.50;;
11943;SDS011;6031;50.220;10.122;2023-05-13T09:27:56;2.60;;;1.90;;
11943;SDS011;6031;50.220;10.122;2023-05-13T09:30:26;6.57;;;2.30;;
11943;SDS011;6031;50.220;10.122;2023-05-13T09:33:05;6.82;;;3.00;;
11943;SDS011;6031;50.220;10.122;2023-05-13T09:35:32;2.60;;;2.33;;
11943;SDS011;6031;50.220;10.122;2023-05-13T09:37:58;2.97;;;2.78;;
11943;SDS011;6031;50.220;10.122;2023-05-13T09:40:24;2.13;;;1.85;;
11943;SDS011;6031;50.220;10.122;2023-05-13T09:42:50;3.30;;;2.70;;
11943;SDS011;6031;50.220;10.122;2023-05-13T09:45:15;3.88;;;2.45;;
11943;SDS011;6031;50.220;10.122;2023-05-13T09:47:41;2.67;;;2.40;;
11943;SDS011;6031;50.220;10.122;2023-05-13T09:50:08;2.80;;;2.60;;
11943;SDS011;6031;50.220;10.122;2023-05-13T09:52:36;3.03;;;2.50;;
11943;SDS011;6031;50.220;10.122;2023-05-13T09:55:02;5.43;;;2.70;;
11943;SDS011;6031;50.220;10.122;2023-05-13T09:57:29;3.53;;;2.30;;
11943;SDS011;6031;50.220;10.122;2023-05-13T09:59:59;2.77;;;2.53;;
11943;SDS011;6031;50.220;10.122;2023-05-13T10:02:26;2.40;;;2.20;;
11943;SDS011;6031;50.220;10.122;2023-05-13T10:04:53;2.30;;;2.20;;
11943;SDS011;6031;50.220;10.122;2023-05-13T10:07:22;3.70;;;3.00;;
11943;SDS011;6031;50.220;10.122;2023-05-13T10:09:51;3.53;;;2.83;;
11943;SDS011;6031;50.220;10.122;2023-05-13T10:12:21;2.93;;;2.47;;
11943;SDS011;6031;50.220;10.122;2023-05-13T10:14:49;3.27;;;2.93;;
11943;SDS011;6031;50.220;10.122;2023-05-13T10:17:17;3.13;;;2.80;;
11943;SDS011;6031;50.220;10.122;2023-05-13T10:19:44;5.27;;;4.77;;
11943;SDS011;6031;50.220;10.122;2023-05-13T10:22:10;4.13;;;3.80;;
11943;SDS011;6031;50.220;10.122;2023-05-13T10:24:37;3.13;;;2.90;;
11943;SDS011;6031;50.220;10.122;2023-05-13T10:27:03;3.90;;;3.37;;
11943;SDS011;6031;50.220;10.122;2023-05-13T10:29:30;5.40;;;3.83;;
11943;SDS011;6031;50.220;10.122;2023-05-13T10:31:56;6.57;;;3.27;;
11943;SDS011;6031;50.220;10.122;2023-05-13T10:34:24;3.80;;;3.50;;
11943;SDS011;6031;50.220;10.122;2023-05-13T10:39:47;2.80;;;2.60;;
11943;SDS011;6031;50.220;10.122;2023-05-13T10:44:56;4.73;;;3.13;;
11943;SDS011;6031;50.220;10.122;2023-05-13T10:47:22;5.23;;;3.37;;
11943;SDS011;6031;50.220;10.122;2023-05-13T10:49:51;7.13;;;4.00;;
11943;SDS011;6031;50.220;10.122;2023-05-13T10:52:17;3.63;;;3.33;;
11943;SDS011;6031;50.220;10.122;2023-05-13T10:54:46;3.30;;;3.10;;
11943;SDS011;6031;50.220;10.122;2023-05-13T10:57:31;3.63;;;3.30;;
11943;SDS011;6031;50.220;10.122;2023-05-13T11:00:08;4.03;;;3.47;;
11943;SDS011;6031;50.220;10.122;2023-05-13T11:02:37;3.77;;;3.43;;
11943;SDS011;6031;50.220;10.122;2023-05-13T11:05:02;5.97;;;3.40;;
11943;SDS011;6031;50.220;10.122;2023-05-13T11:07:29;4.47;;;3.20;;
11943;SDS011;6031;50.220;10.122;2023-05-13T11:09:55;3.00;;;2.80;;
11943;SDS011;6031;50.220;10.122;2023-05-13T11:12:20;8.87;;;3.43;;
11943;SDS011;6031;50.220;10.122;2023-05-13T11:14:46;3.77;;;3.10;;
11943;SDS011;6031;50.220;10.122;2023-05-13T11:17:12;3.43;;;3.10;;
11943;SDS011;6031;50.220;10.122;2023-05-13T11:19:46;3.23;;;2.90;;
11943;SDS011;6031;50.220;10.122;2023-05-13T11:22:14;4.97;;;3.23;;
11943;SDS011;6031;50.220;10.122;2023-05-13T11:24:43;2.77;;;2.57;;
11943;SDS011;6031;50.220;10.122;2023-05-13T11:29:49;3.47;;;3.17;;
11943;SDS011;6031;50.220;10.122;2023-05-13T11:37:46;3.17;;;2.97;;
11943;SDS011;6031;50.220;10.122;2023-05-13T11:40:21;2.20;;;2.10;;
11943;SDS011;6031;50.220;10.122;2023-05-13T11:42:48;2.93;;;2.73;;
11943;SDS011;6031;50.220;10.122;2023-05-13T11:45:14;4.03;;;3.20;;
11943;SDS011;6031;50.220;10.122;2023-05-13T11:47:41;3.33;;;3.03;;
11943;SDS011;6031;50.220;10.122;2023-05-13T11:50:28;2.53;;;2.43;;
11943;SDS011;6031;50.220;10.122;2023-05-13T11:52:59;3.97;;;2.17;;
11943;SDS011;6031;50.220;10.122;2023-05-13T11:55:32;2.60;;;2.40;;
11943;SDS011;6031;50.220;10.122;2023-05-13T11:58:01;2.87;;;2.50;;
11943;SDS011;6031;50.220;10.122;2023-05-13T12:00:28;2.90;;;2.70;;
11943;SDS011;6031;50.220;10.122;2023-05-13T12:02:54;2.40;;;2.20;;
11943;SDS011;6031;50.220;10.122;2023-05-13T12:05:21;5.57;;;3.20;;
11943;SDS011;6031;50.220;10.122;2023-05-13T12:07:47;3.30;;;3.10;;
11943;SDS011;6031;50.220;10.122;2023-05-13T12:10:13;2.83;;;2.63;;
11943;SDS011;6031;50.220;10.122;2023-05-13T12:12:40;3.67;;;2.90;;
11943;SDS011;6031;50.220;10.122;2023-05-13T12:15:08;3.37;;;2.70;;
11943;SDS011;6031;50.220;10.122;2023-05-13T12:17:38;3.60;;;3.10;;
11943;SDS011;6031;50.220;10.122;2023-05-13T12:27:58;4.53;;;3.23;;
11943;SDS011;6031;50.220;10.122;2023-05-13T12:30:37;3.13;;;2.93;;
11943;SDS011;6031;50.220;10.122;2023-05-13T12:33:03;3.50;;;3.23;;
11943;SDS011;6031;50.220;10.122;2023-05-13T12:35:30;3.40;;;3.10;;
11943;SDS011;6031;50.220;10.122;2023-05-13T12:37:59;3.37;;;3.17;;
11943;SDS011;6031;50.220;10.122;2023-05-13T12:40:28;2.90;;;2.70;;
11943;SDS011;6031;50.220;10.122;2023-05-13T12:43:01;4.03;;;2.93;;
11943;SDS011;6031;50.220;10.122;2023-05-13T12:45:30;4.13;;;3.20;;
11943;SDS011;6031;50.220;10.122;2023-05-13T12:47:57;4.03;;;2.40;;
11943;SDS011;6031;50.220;10.122;2023-05-13T12:50:23;3.33;;;2.53;;
11943;SDS011;6031;50.220;10.122;2023-05-13T12:52:50;4.93;;;2.67;;
11943;SDS011;6031;50.220;10.122;2023-05-13T12:55:16;4.57;;;2.93;;
11943;SDS011;6031;50.220;10.122;2023-05-13T12:57:42;5.67;;;2.93;;
11943;SDS011;6031;50.220;10.122;2023-05-13T13:00:17;5.10;;;3.83;;
11943;SDS011;6031;50.220;10.122;2023-05-13T13:02:44;3.47;;;3.20;;
11943;SDS011;6031;50.220;10.122;2023-05-13T13:05:09;2.60;;;2.40;;
11943;SDS011;6031;50.220;10.122;2023-05-13T13:07:35;5.00;;;3.23;;
11943;SDS011;6031;50.220;10.122;2023-05-13T13:10:02;3.90;;;2.57;;
11943;SDS011;6031;50.220;10.122;2023-05-13T13:12:30;3.40;;;3.20;;
11943;SDS011;6031;50.220;10.122;2023-05-13T13:14:56;4.27;;;2.77;;
11943;SDS011;6031;50.220;10.122;2023-05-13T13:17:22;3.07;;;2.87;;
11943;SDS011;6031;50.220;10.122;2023-05-13T13:19:47;4.40;;;4.00;;
11943;SDS011;6031;50.220;10.122;2023-05-13T13:22:13;3.67;;;2.83;;
11943;SDS011;6031;50.220;10.122;2023-05-13T13:24:39;3.33;;;3.10;;
11943;SDS011;6031;50.220;10.122;2023-05-13T13:27:05;3.00;;;2.70;;
11943;SDS011;6031;50.220;10.122;2023-05-13T13:29:30;5.63;;;2.73;;
11943;SDS011;6031;50.220;10.122;2023-05-13T13:31:56;4.63;;;2.70;;
11943;SDS011;6031;50.220;10.122;2023-05-13T13:34:21;3.83;;;2.20;;
11943;SDS011;6031;50.220;10.122;2023-05-13T13:36:47;2.97;;;2.27;;
11943;SDS011;6031;50.220;10.122;2023-05-13T13:39:12;2.93;;;2.63;;
11943;SDS011;6031;50.220;10.122;2023-05-13T13:41:38;2.47;;;2.27;;
11943;SDS011;6031;50.220;10.122;2023-05-13T13:44:03;3.27;;;2.43;;
11943;SDS011;6031;50.220;10.122;2023-05-13T13:46:29;2.80;;;2.53;;
11943;SDS011;6031;50.220;10.122;2023-05-13T13:48:54;3.37;;;2.77;;
11943;SDS011;6031;50.220;10.122;2023-05-13T13:51:20;2.33;;;2.13;;
11943;SDS011;6031;50.220;10.122;2023-05-13T13:53:45;2.60;;;2.43;;
11943;SDS011;6031;50.220;10.122;2023-05-13T13:56:13;3.23;;;2.77;;
11943;SDS011;6031;50.220;10.122;2023-05-13T13:58:38;3.77;;;2.40;;
11943;SDS011;6031;50.220;10.122;2023-05-13T14:01:04;2.10;;;1.93;;
11943;SDS011;6031;50.220;10.122;2023-05-13T14:03:30;2.40;;;2.27;;
11943;SDS011;6031;50.220;10.122;2023-05-13T14:05:55;1.90;;;1.80;;
11943;SDS011;6031;50.220;10.122;2023-05-13T14:08:21;2.30;;;2.13;;
11943;SDS011;6031;50.220;10.122;2023-05-13T14:10:47;2.23;;;2.03;;
11943;SDS011;6031;50.220;10.122;2023-05-13T14:13:12;2.20;;;2.10;;
11943;SDS011;6031;50.220;10.122;2023-05-13T14:15:38;2.40;;;2.20;;
11943;SDS011;6031;50.220;10.122;2023-05-13T14:18:04;5.77;;;3.10;;
11943;SDS011;6031;50.220;10.122;2023-05-13T14:20:31;3.30;;;2.33;;
11943;SDS011;6031;50.220;10.122;2023-05-13T14:22:58;4.30;;;2.07;;
11943;SDS011;6031;50.220;10.122;2023-05-13T14:25:23;4.17;;;2.10;;
11943;SDS011;6031;50.220;10.122;2023-05-13T14:27:49;2.37;;;2.27;;
11943;SDS011;6031;50.220;10.122;2023-05-13T14:30:14;2.03;;;1.93;;
11943;SDS011;6031;50.220;10.122;2023-05-13T14:32:40;2.20;;;2.07;;
11943;SDS011;6031;50.220;10.122;2023-05-13T14:35:09;2.63;;;2.40;;
11943;SDS011;6031;50.220;10.122;2023-05-13T14:37:35;2.37;;;2.07;;
11943;SDS011;6031;50.220;10.122;2023-05-13T14:40:00;2.13;;;2.03;;
11943;SDS011;6031;50.220;10.122;2023-05-13T14:42:26;2.10;;;2.00;;
11943;SDS011;6031;50.220;10.122;2023-05-13T14:44:51;2.93;;;2.33;;
11943;SDS011;6031;50.220;10.122;2023-05-13T14:47:17;4.37;;;2.20;;
11943;SDS011;6031;50.220;10.122;2023-05-13T14:49:42;4.83;;;2.90;;
11943;SDS011;6031;50.220;10.122;2023-05-13T14:52:08;3.97;;;1.90;;
11943;SDS011;6031;50.220;10.122;2023-05-13T14:54:33;2.33;;;2.13;;
11943;SDS011;6031;50.220;10.122;2023-05-13T14:57:01;2.20;;;2.00;;
11943;SDS011;6031;50.220;10.122;2023-05-13T14:59:27;1.90;;;1.80;;
11943;SDS011;6031;50.220;10.122;2023-05-13T15:01:53;3.07;;;2.20;;
11943;SDS011;6031;50.220;10.122;2023-05-13T15:04:19;2.20;;;2.00;;
11943;SDS011;6031;50.220;10.122;2023-05-13T15:06:44;4.17;;;2.13;;
11943;SDS011;6031;50.220;10.122;2023-05-13T15:09:10;2.43;;;2.30;;
11943;SDS011;6031;50.220;10.122;2023-05-13T15:11:36;2.80;;;2.60;;
11943;SDS011;6031;50.220;10.122;2023-05-13T15:14:03;2.20;;;2.00;;